Sea-land Endurance — V7HX3 — position and weather

sailwx.info

Track history (hours):
 
Tides and Currents Weather Stations Pressure Air Temp Water Temp Dewpoint Dewpoint Depression Visibility Wind Speed Wind Dir Waves Ship Positions

Sea-land Endurance

Last reported at 2017-Oct-15 20:43 UTC. Time now 2017-Oct-20 03:30 UTC.
Position N 47°23' W 007°20'.

Type: Cargo ship. MMSI: 538002326.

Date/timePositionNaut miles runAvg speedWind from/ knotsBaromVisibWave heightAir tempDewpointWater temp
2017-Oct-15 20:43N 47°23' W 007°20'1313.1
2017-Oct-15 19:43N 47°35' W 007°10'312.7
2017-Oct-15 19:29N 47°37' W 007°08'9812.6
2017-Oct-15 11:43N 49°01' W 005°53'1111.7
2017-Oct-15 10:45N 49°07' W 005°38'2012.1
2017-Oct-15 09:03N 49°17' W 005°10'213.0
2017-Oct-15 08:55N 49°18' W 005°08'512.9
2017-Oct-15 08:30N 49°19' W 005°00'713.1
2017-Oct-15 08:00N 49°22' W 004°51'713.2
2017-Oct-15 07:30N 49°25' W 004°41'713.3
2017-Oct-15 07:00N 49°28' W 004°32'713.3
2017-Oct-15 06:30N 49°30' W 004°23'713.2
2017-Oct-15 06:00N 49°33' W 004°14'613.0
2017-Oct-15 05:30N 49°36' W 004°05'612.7
2017-Oct-15 05:00N 49°39' W 003°56'612.2
2017-Oct-15 04:30N 49°42' W 003°48'611.9
2017-Oct-15 04:00N 49°45' W 003°40'611.8
2017-Oct-15 03:30N 49°47' W 003°31'611.7
2017-Oct-15 03:00N 49°49' W 003°23'611.8
2017-Oct-15 02:30N 49°52' W 003°15'611.6
2017-Oct-15 02:00N 49°55' W 003°07'612.1
2017-Oct-15 01:30N 49°58' W 002°59'612.6
2017-Oct-15 01:00N 50°01' W 002°50'713.1
2017-Oct-15 00:30N 50°02' W 002°40'713.7
2017-Oct-15 00:00N 50°04' W 002°30'714.2
2017-Oct-14 23:30N 50°06' W 002°19'714.8
2017-Oct-14 23:01N 50°07' W 002°08'815.3
2017-Oct-14 22:31N 50°09' W 001°57'1015.7
2017-Oct-14 21:53N 50°12' W 001°42'615.6
2017-Oct-14 21:30N 50°14' W 001°33'815.5
2017-Oct-14 21:01N 50°16' W 001°22'815.5
2017-Oct-14 20:30N 50°18' W 001°10'815.1
2017-Oct-14 20:00N 50°20' W 000°59'714.3
2017-Oct-14 19:30N 50°22' W 000°48'713.8
2017-Oct-14 19:01N 50°24' W 000°37'713.6
2017-Oct-14 18:31N 50°26' W 000°27'713.2
2017-Oct-14 18:00N 50°28' W 000°17'612.9
2017-Oct-14 17:30N 50°29' W 000°07'612.6
2017-Oct-14 17:00N 50°31' E 000°02'612.3
2017-Oct-14 16:30N 50°32' E 000°12'612.1
2017-Oct-14 16:00N 50°34' E 000°21'612.2
2017-Oct-14 15:30N 50°36' E 000°30'612.3
2017-Oct-14 15:00N 50°38' E 000°39'612.9
2017-Oct-14 14:30N 50°42' E 000°47'713.5
2017-Oct-14 14:01N 50°46' E 000°56'713.9
2017-Oct-14 13:31N 50°50' E 001°04'814.0
2017-Oct-14 12:58N 50°56' E 001°13'614.1
2017-Oct-14 12:30N 51°00' E 001°20'713.8
2017-Oct-14 12:01N 51°04' E 001°29'713.4
2017-Oct-14 11:31N 51°09' E 001°37'612.8
2017-Oct-14 11:01N 51°13' E 001°44'612.3
2017-Oct-14 10:31N 51°18' E 001°50'612.1
2017-Oct-14 10:01N 51°23' E 001°56'611.8
2017-Oct-14 09:30N 51°28' E 002°01'611.8
2017-Oct-14 09:01N 51°32' E 002°08'611.6
2017-Oct-14 08:30N 51°37' E 002°14'611.6
2017-Oct-14 08:00N 51°42' E 002°18'611.9
2017-Oct-14 07:30N 51°47' E 002°24'612.1
2017-Oct-14 07:00N 51°51' E 002°30'712.3
2017-Oct-14 06:28N 51°56' E 002°38'612.8
2017-Oct-14 05:59N 52°00' E 002°44'613.2
2017-Oct-14 05:30N 52°05' E 002°51'913.5
2017-Oct-14 04:48N 52°13' E 003°01'413.6
2017-Oct-14 04:28N 52°16' E 003°05'613.3
2017-Oct-14 04:00N 52°21' E 003°12'713.5
2017-Oct-14 03:30N 52°26' E 003°19'612.2
2017-Oct-14 03:00N 52°29' E 003°28'713.0
2017-Oct-14 02:29N 52°30' E 003°39'612.8
2017-Oct-14 02:00N 52°30' E 003°49'612.6
2017-Oct-14 01:30N 52°31' E 003°59'612.6
2017-Oct-14 01:00N 52°31' E 004°10'612.6
2017-Oct-14 00:30N 52°30' E 004°20'511.0
2017-Oct-14 00:01N 52°29' E 004°29'4 8.3
2017-Oct-13 23:31N 52°28' E 004°35'1 1.5
2017-Oct-13 23:00N 52°28' E 004°37'1 1.3
2017-Oct-13 22:31N 52°28' E 004°38'3 5.1
2017-Oct-13 22:00N 52°27' E 004°41'4 8.2
2017-Oct-13 21:30N 52°25' E 004°48'2 3.1
2017-Oct-13 21:00N 52°24' E 004°49'0 0.0
2017-Oct-13 20:30N 52°24' E 004°49'0 0.0
2017-Oct-13 19:49N 52°24' E 004°49'0 0.0
2017-Oct-13 19:19N 52°24' E 004°49'0 0.0
2017-Oct-13 18:58N 52°24' E 004°49'0 0.0
2017-Oct-13 18:28N 52°24' E 004°49'0 0.0
2017-Oct-13 17:55N 52°24' E 004°49'0 0.0
2017-Oct-13 17:28N 52°24' E 004°49'0 0.0
2017-Oct-13 16:40N 52°24' E 004°49'0 0.0
2017-Oct-13 16:28N 52°24' E 004°49'0 0.0
2017-Oct-13 15:49N 52°24' E 004°49'0 0.0
2017-Oct-13 15:28N 52°24' E 004°49'0 0.0
2017-Oct-13 14:58N 52°24' E 004°49'0 0.0
2017-Oct-13 14:16N 52°24' E 004°49'0 0.0
2017-Oct-13 13:46N 52°24' E 004°49'0 0.0
2017-Oct-13 13:28N 52°24' E 004°49'0 0.0
2017-Oct-13 12:52N 52°24' E 004°49'0 0.0
2017-Oct-13 11:34N 52°24' E 004°49'0 0.0
2017-Oct-13 11:28N 52°24' E 004°49'0 0.0
2017-Oct-13 10:58N 52°24' E 004°49'0 0.0
2017-Oct-13 10:28N 52°24' E 004°49'0 0.0
2017-Oct-13 09:58N 52°24' E 004°49'0 0.0
2017-Oct-13 09:25N 52°24' E 004°49'0 0.0
2017-Oct-13 08:58N 52°24' E 004°49'0 0.0
2017-Oct-13 08:25N 52°24' E 004°49'0 0.0
2017-Oct-13 07:58N 52°24' E 004°49'0 0.0
2017-Oct-13 07:28N 52°24' E 004°49'0 0.0
2017-Oct-13 06:58N 52°24' E 004°49'0 0.0
2017-Oct-13 06:19N 52°24' E 004°49'0 0.0
2017-Oct-13 05:52N 52°24' E 004°49'0 0.0
2017-Oct-13 05:28N 52°24' E 004°49'0 0.0
2017-Oct-13 04:52N 52°24' E 004°49'0 0.0
2017-Oct-13 04:28N 52°24' E 004°49'0 0.0
2017-Oct-13 03:46N 52°24' E 004°49'0 0.0
2017-Oct-13 03:25N 52°24' E 004°49'0 0.0
2017-Oct-13 02:55N 52°24' E 004°49'0 0.0
2017-Oct-13 02:28N 52°24' E 004°49'0 0.0
2017-Oct-13 01:58N 52°24' E 004°49'0 0.0
2017-Oct-13 01:25N 52°24' E 004°49'0 0.0
2017-Oct-13 00:58N 52°24' E 004°49'0 0.0
2017-Oct-13 00:19N 52°24' E 004°49'0 0.0
2017-Oct-12 23:58N 52°24' E 004°49'0 0.0
2017-Oct-12 23:22N 52°24' E 004°49'0 0.0
2017-Oct-12 22:58N 52°24' E 004°49'0 0.0
2017-Oct-12 22:28N 52°24' E 004°49'0 0.0
2017-Oct-12 21:58N 52°24' E 004°49'0 0.0
2017-Oct-12 21:25N 52°24' E 004°49'0 0.0
2017-Oct-12 20:58N 52°24' E 004°49'0 0.0
2017-Oct-12 20:28N 52°24' E 004°49'0 0.0
2017-Oct-12 19:58N 52°24' E 004°49'0 0.0
2017-Oct-12 19:25N 52°24' E 004°49'0 0.0
2017-Oct-12 18:49N 52°24' E 004°49'0 0.0
2017-Oct-12 18:22N 52°24' E 004°49'0 0.0
2017-Oct-12 17:46N 52°24' E 004°49'0 0.0
2017-Oct-12 17:19N 52°24' E 004°49'0 0.0
2017-Oct-12 16:58N 52°24' E 004°49'0 0.0
2017-Oct-12 16:25N 52°24' E 004°49'0 0.0
2017-Oct-12 15:55N 52°24' E 004°49'0 0.0
2017-Oct-12 15:25N 52°24' E 004°49'0 0.0
2017-Oct-12 14:55N 52°24' E 004°49'0 0.0
2017-Oct-12 14:25N 52°24' E 004°49'0 0.0
2017-Oct-12 13:49N 52°24' E 004°49'0 0.0
2017-Oct-12 13:13N 52°24' E 004°49'0 0.0
2017-Oct-12 12:55N 52°24' E 004°49'0 0.0
2017-Oct-12 12:16N 52°24' E 004°49'0 0.0
2017-Oct-12 11:49N 52°24' E 004°49'0 0.0
2017-Oct-12 11:16N 52°24' E 004°49'0 0.0
2017-Oct-12 10:58N 52°24' E 004°49'0 0.0
2017-Oct-12 10:25N 52°24' E 004°49'0 0.0
2017-Oct-12 09:58N 52°24' E 004°49'0 0.0
2017-Oct-12 09:19N 52°24' E 004°49'0 0.0
2017-Oct-12 08:31N 52°24' E 004°49'0 0.0
2017-Oct-12 08:25N 52°24' E 004°49'0 0.0
2017-Oct-12 07:49N 52°24' E 004°49'0 0.0
2017-Oct-12 07:19N 52°24' E 004°49'0 0.0
2017-Oct-12 06:55N 52°24' E 004°49'0 0.0
2017-Oct-12 06:19N 52°24' E 004°49'0 0.0
2017-Oct-12 05:55N 52°24' E 004°49'0 0.0
2017-Oct-12 05:25N 52°24' E 004°49'0 0.0
2017-Oct-12 04:55N 52°24' E 004°49'0 0.0
2017-Oct-12 04:25N 52°24' E 004°49'0 0.0
2017-Oct-12 03:58N 52°24' E 004°49'0 0.0
2017-Oct-12 03:22N 52°24' E 004°49'0 0.0
2017-Oct-12 02:58N 52°24' E 004°49'0 0.0
2017-Oct-12 02:28N 52°24' E 004°49'0 0.0
2017-Oct-12 01:58N 52°24' E 004°49'0 0.0
2017-Oct-12 01:25N 52°24' E 004°49'0 0.0
2017-Oct-12 00:58N 52°24' E 004°49'0 0.0
2017-Oct-12 00:25N 52°24' E 004°49'0 0.0
2017-Oct-11 23:58N 52°24' E 004°49'0 0.0
2017-Oct-11 23:30N 52°24' E 004°49'1 1.4
2017-Oct-11 23:00N 52°25' E 004°49'3 5.3
2017-Oct-11 22:30N 52°26' E 004°45'4 7.7
2017-Oct-11 22:00N 52°28' E 004°39'2 3.4
2017-Oct-11 21:31N 52°28' E 004°37'0 0.3
2017-Oct-11 21:00N 52°28' E 004°36'1 2.0
2017-Oct-11 20:31N 52°28' E 004°35'3 5.2
2017-Oct-11 20:01N 52°28' E 004°30'3 6.5
2017-Oct-11 19:30N 52°29' E 004°25'2 5.0
2017-Oct-11 19:01N 52°29' E 004°21'2 4.8
2017-Oct-11 18:31N 52°29' E 004°17'2 4.0
2017-Oct-11 18:00N 52°29' E 004°14'3 5.2
2017-Oct-11 17:30N 52°29' E 004°10'3 5.7
2017-Oct-11 17:00N 52°28' E 004°05'68 4.0
2017-Oct-11 00:00N 51°21' E 004°17'0 0.4
2017-Oct-10 23:30N 51°21' E 004°17'0 0.0
2017-Oct-10 23:01N 51°21' E 004°17'0 0.0
2017-Oct-10 22:30N 51°21' E 004°17'0 0.0
2017-Oct-10 22:01N 51°21' E 004°17'1 2.9
2017-Oct-10 21:30N 51°19' E 004°19'1 1.1
2017-Oct-10 21:00N 51°19' E 004°19'0 0.0
2017-Oct-10 20:28N 51°19' E 004°19'0 0.0
2017-Oct-10 19:58N 51°19' E 004°19'0 0.0
2017-Oct-10 19:22N 51°19' E 004°19'0 0.0
2017-Oct-10 18:46N 51°19' E 004°19'0 0.0
2017-Oct-10 18:28N 51°19' E 004°19'0 0.0
2017-Oct-10 17:58N 51°19' E 004°19'0 0.0
2017-Oct-10 17:28N 51°19' E 004°19'0 0.0
2017-Oct-10 16:55N 51°19' E 004°19'0 0.0
2017-Oct-10 16:25N 51°19' E 004°19'0 0.0
2017-Oct-10 15:49N 51°19' E 004°19'0 0.0
2017-Oct-10 15:25N 51°19' E 004°19'0 0.0
2017-Oct-10 14:49N 51°19' E 004°19'0 0.0
2017-Oct-10 13:49N 51°19' E 004°19'0 0.0
2017-Oct-10 13:28N 51°19' E 004°19'0 0.0
2017-Oct-10 12:58N 51°19' E 004°19'0 0.0
2017-Oct-10 12:28N 51°19' E 004°19'0 0.0
2017-Oct-10 11:52N 51°19' E 004°19'0 0.0
2017-Oct-10 11:28N 51°19' E 004°19'0 0.0
2017-Oct-10 10:55N 51°19' E 004°19'0 0.0
2017-Oct-10 10:28N 51°19' E 004°19'0 0.0
2017-Oct-10 09:58N 51°19' E 004°19'0 0.0
2017-Oct-10 09:25N 51°19' E 004°19'0 0.0
2017-Oct-10 08:58N 51°19' E 004°19'0 0.0
2017-Oct-10 08:22N 51°19' E 004°19'0 0.0
2017-Oct-10 07:52N 51°19' E 004°19'0 0.0
2017-Oct-10 07:22N 51°19' E 004°19'0 0.0
2017-Oct-10 06:58N 51°19' E 004°19'0 0.0
2017-Oct-10 06:25N 51°19' E 004°19'0 0.0
2017-Oct-10 05:58N 51°19' E 004°19'0 0.0
2017-Oct-10 05:28N 51°19' E 004°19'0 0.0
2017-Oct-10 04:58N 51°19' E 004°19'0 0.0
2017-Oct-10 04:16N 51°19' E 004°19'0 0.0
2017-Oct-10 03:55N 51°19' E 004°19'0 0.0
2017-Oct-10 03:22N 51°19' E 004°19'0 0.0
2017-Oct-10 02:55N 51°19' E 004°19'0 0.0
2017-Oct-10 02:28N 51°19' E 004°19'0 0.0
2017-Oct-10 01:55N 51°19' E 004°19'0 0.0
2017-Oct-10 01:25N 51°19' E 004°19'0 0.0
2017-Oct-10 00:58N 51°19' E 004°19'0 0.0
2017-Oct-10 00:28N 51°19' E 004°19'0 0.0
2017-Oct-09 23:58N 51°19' E 004°19'0 0.0
2017-Oct-09 23:28N 51°19' E 004°19'0 0.0
2017-Oct-09 22:58N 51°19' E 004°19'0 0.0
2017-Oct-09 22:28N 51°19' E 004°19'0 0.0
2017-Oct-09 21:58N 51°19' E 004°19'0 0.0
2017-Oct-09 21:22N 51°19' E 004°19'0 0.0
2017-Oct-09 20:58N 51°19' E 004°19'0 0.0
2017-Oct-09 20:25N 51°19' E 004°19'0 0.0
2017-Oct-09 19:58N 51°19' E 004°19'0 0.0
2017-Oct-09 19:28N 51°19' E 004°19'0 0.0
2017-Oct-09 18:55N 51°19' E 004°19'0 0.0
2017-Oct-09 18:28N 51°19' E 004°19'0 0.0
2017-Oct-09 17:58N 51°19' E 004°19'0 0.0
2017-Oct-09 17:25N 51°19' E 004°19'0 0.0
2017-Oct-09 16:58N 51°19' E 004°19'0 0.0
2017-Oct-09 16:30N 51°19' E 004°19'2 3.5
2017-Oct-09 16:01N 51°21' E 004°18'0 0.8
2017-Oct-09 15:30N 51°21' E 004°17'0 0.0
2017-Oct-09 15:00N 51°21' E 004°17'0 0.7
2017-Oct-09 14:30N 51°21' E 004°17'3 5.2
2017-Oct-09 14:00N 51°22' E 004°13'4 8.5
2017-Oct-09 13:30N 51°22' E 004°06'611.6
2017-Oct-09 13:00N 51°26' E 003°60'713.2
2017-Oct-09 12:31N 51°21' E 003°53'611.9
2017-Oct-09 12:00N 51°23' E 003°44'510.1
2017-Oct-09 11:30N 51°26' E 003°38'5 9.4
2017-Oct-09 11:00N 51°25' E 003°30'612.4
2017-Oct-09 10:30N 51°24' E 003°21'611.5
2017-Oct-09 10:00N 51°24' E 003°11'510.9
2017-Oct-09 09:31N 51°24' E 003°03'510.5
2017-Oct-09 09:00N 51°22' E 002°55'510.8
2017-Oct-09 08:30N 51°22' E 002°46'5 9.9
2017-Oct-09 08:00N 51°21' E 002°38'0 1.0
2017-Oct-09 07:30N 51°21' E 002°38'1 1.2
2017-Oct-09 06:56N 51°21' E 002°38'2 5.3
2017-Oct-09 06:30N 51°24' E 002°38'1 0.9
2017-Oct-09 05:38N 51°24' E 002°38'0 0.1
2017-Oct-09 05:20N 51°24' E 002°38'0 0.0
2017-Oct-09 04:56N 51°24' E 002°38'0 0.0
2017-Oct-09 04:29N 51°24' E 002°38'0 0.0
2017-Oct-09 03:53N 51°24' E 002°38'0 0.0
2017-Oct-09 03:17N 51°24' E 002°38'0 0.0
2017-Oct-09 02:53N 51°24' E 002°38'0 0.1
2017-Oct-09 00:14N 51°24' E 002°38'0 0.1
2017-Oct-08 23:38N 51°24' E 002°38'0 0.0
2017-Oct-08 23:17N 51°24' E 002°38'0 0.0
2017-Oct-08 22:56N 51°24' E 002°38'0 0.0
2017-Oct-08 22:14N 51°24' E 002°38'0 0.0
2017-Oct-08 21:50N 51°24' E 002°38'0 0.0
2017-Oct-08 21:20N 51°24' E 002°38'0 0.0
2017-Oct-08 20:56N 51°24' E 002°38'0 0.0
2017-Oct-08 19:47N 51°24' E 002°38'0 0.0
2017-Oct-08 19:26N 51°24' E 002°38'0 0.1
2017-Oct-08 18:59N 51°24' E 002°38'0 0.2
2017-Oct-08 18:23N 51°24' E 002°38'0 0.0
2017-Oct-08 17:11N 51°24' E 002°38'0 0.0
2017-Oct-08 16:35N 51°24' E 002°38'0 0.0
2017-Oct-08 12:20N 51°24' E 002°38'0 0.2
2017-Oct-08 11:59N 51°24' E 002°38'0 0.1
2017-Oct-08 11:29N 51°24' E 002°38'0 0.0
2017-Oct-08 04:26N 51°24' E 002°38'0 0.0
2017-Oct-07 23:26N 51°24' E 002°38'0 0.1
2017-Oct-07 22:53N 51°24' E 002°38'0 0.1
2017-Oct-07 22:23N 51°24' E 002°38'0 0.0
2017-Oct-07 21:53N 51°24' E 002°38'0 0.0
2017-Oct-07 21:26N 51°24' E 002°38'0 0.0
2017-Oct-07 20:47N 51°24' E 002°38'0 0.1
2017-Oct-07 19:47N 51°24' E 002°38'0 0.1
2017-Oct-07 19:20N 51°24' E 002°38'0 0.1
2017-Oct-07 18:44N 51°24' E 002°38'0 0.1
2017-Oct-07 18:20N 51°24' E 002°38'0 0.2
2017-Oct-07 17:44N 51°24' E 002°38'0 0.0
2017-Oct-07 15:56N 51°24' E 002°38'0 0.0
2017-Oct-07 07:11N 51°24' E 002°38'0 0.0
2017-Oct-07 06:59N 51°24' E 002°38'0 0.0
2017-Oct-07 06:29N 51°24' E 002°38'0 0.0
2017-Oct-07 05:56N 51°24' E 002°38'0 0.0
2017-Oct-07 05:26N 51°24' E 002°38'0 0.0
2017-Oct-07 04:56N 51°24' E 002°38'0 0.0
2017-Oct-07 04:29N 51°24' E 002°38'0 0.0
2017-Oct-07 02:44N 51°24' E 002°38'0 0.2
2017-Oct-07 02:20N 51°24' E 002°38'1 2.0
2017-Oct-07 01:57N 51°24' E 002°38'4 7.9
2017-Oct-07 01:29N 51°23' E 002°33'4 8.0
2017-Oct-07 01:00N 51°22' E 002°27'713.3
2017-Oct-07 00:30N 51°18' E 002°18'713.6
2017-Oct-07 00:01N 51°14' E 002°09'714.8
2017-Oct-06 23:30N 51°11' E 001°58'714.8
2017-Oct-06 23:00N 51°08' E 001°48'714.7
2017-Oct-06 22:30N 51°02' E 001°40'713.9
2017-Oct-06 22:00N 50°57' E 001°32'612.9
2017-Oct-06 21:30N 50°52' E 001°26'612.0
2017-Oct-06 21:01N 50°46' E 001°24'3011.6
2017-Oct-06 18:24N 50°27' E 000°47'2411.7
2017-Oct-06 16:20N 50°20' E 000°11'411.4
2017-Oct-06 16:00N 50°19' E 000°05'611.2
2017-Oct-06 15:25N 50°17' W 000°05'1010.9
2017-Oct-06 14:33N 50°15' W 000°19'2910.7
2017-Oct-06 11:51N 50°08' W 001°03'412.3
2017-Oct-06 11:30N 50°07' W 001°09'613.0
2017-Oct-06 11:00N 50°05' W 001°19'713.8
2017-Oct-06 10:30N 50°02' W 001°29'714.6
2017-Oct-06 10:01N 49°60' W 001°40'815.5
2017-Oct-06 09:30N 49°58' W 001°51'815.9
2017-Oct-06 09:00N 49°56' W 002°03'2316.2
2017-Oct-06 07:34N 49°50' W 002°38'215.7
2017-Oct-06 07:28N 49°49' W 002°40'715.6
2017-Oct-06 07:00N 49°48' W 002°51'1114.8
2017-Oct-06 06:18N 49°44' W 003°06'414.7
2017-Oct-06 06:00N 49°42' W 003°12'714.4
2017-Oct-06 05:30N 49°38' W 003°22'7013.7
2017-Oct-06 00:26N 49°03' W 004°54'511.8
2017-Oct-06 00:00N 49°01' W 005°01'611.1
2017-Oct-05 23:30N 48°58' W 005°08'510.5
2017-Oct-05 22:59N 48°55' W 005°15'510.5
2017-Oct-05 22:30N 48°53' W 005°22'510.5
2017-Oct-05 21:59N 48°50' W 005°29'510.4
2017-Oct-05 21:29N 48°48' W 005°36'510.3
2017-Oct-05 21:00N 48°44' W 005°41'  
Track history (hours):
 
Tides and Currents Weather Stations Pressure Air Temp Water Temp Dewpoint Dewpoint Depression Visibility Wind Speed Wind Dir Waves Ship Positions

Sea-land Endurance

Last reported at 2017-Oct-15 20:43 UTC. Time now 2017-Oct-20 03:30 UTC.
Position N 47°23' W 007°20'.

Type: Cargo ship. MMSI: 538002326.

Date/timePositionNaut miles runAvg speedWind from/ knotsBaromVisibWave heightAir tempDewpointWater temp
2017-Oct-15 20:43N 47°23' W 007°20'1313.1
2017-Oct-15 19:43N 47°35' W 007°10'312.7
2017-Oct-15 19:29N 47°37' W 007°08'9812.6
2017-Oct-15 11:43N 49°01' W 005°53'1111.7
2017-Oct-15 10:45N 49°07' W 005°38'2012.1
2017-Oct-15 09:03N 49°17' W 005°10'213.0
2017-Oct-15 08:55N 49°18' W 005°08'512.9
2017-Oct-15 08:30N 49°19' W 005°00'713.1
2017-Oct-15 08:00N 49°22' W 004°51'713.2
2017-Oct-15 07:30N 49°25' W 004°41'713.3
2017-Oct-15 07:00N 49°28' W 004°32'713.3
2017-Oct-15 06:30N 49°30' W 004°23'713.2
2017-Oct-15 06:00N 49°33' W 004°14'613.0
2017-Oct-15 05:30N 49°36' W 004°05'612.7
2017-Oct-15 05:00N 49°39' W 003°56'612.2
2017-Oct-15 04:30N 49°42' W 003°48'611.9
2017-Oct-15 04:00N 49°45' W 003°40'611.8
2017-Oct-15 03:30N 49°47' W 003°31'611.7
2017-Oct-15 03:00N 49°49' W 003°23'611.8
2017-Oct-15 02:30N 49°52' W 003°15'611.6
2017-Oct-15 02:00N 49°55' W 003°07'612.1
2017-Oct-15 01:30N 49°58' W 002°59'612.6
2017-Oct-15 01:00N 50°01' W 002°50'713.1
2017-Oct-15 00:30N 50°02' W 002°40'713.7
2017-Oct-15 00:00N 50°04' W 002°30'714.2
2017-Oct-14 23:30N 50°06' W 002°19'714.8
2017-Oct-14 23:01N 50°07' W 002°08'815.3
2017-Oct-14 22:31N 50°09' W 001°57'1015.7
2017-Oct-14 21:53N 50°12' W 001°42'615.6
2017-Oct-14 21:30N 50°14' W 001°33'815.5
2017-Oct-14 21:01N 50°16' W 001°22'815.5
2017-Oct-14 20:30N 50°18' W 001°10'815.1
2017-Oct-14 20:00N 50°20' W 000°59'714.3
2017-Oct-14 19:30N 50°22' W 000°48'713.8
2017-Oct-14 19:01N 50°24' W 000°37'713.6
2017-Oct-14 18:31N 50°26' W 000°27'713.2
2017-Oct-14 18:00N 50°28' W 000°17'612.9
2017-Oct-14 17:30N 50°29' W 000°07'612.6
2017-Oct-14 17:00N 50°31' E 000°02'612.3
2017-Oct-14 16:30N 50°32' E 000°12'612.1
2017-Oct-14 16:00N 50°34' E 000°21'612.2
2017-Oct-14 15:30N 50°36' E 000°30'612.3
2017-Oct-14 15:00N 50°38' E 000°39'612.9
2017-Oct-14 14:30N 50°42' E 000°47'713.5
2017-Oct-14 14:01N 50°46' E 000°56'713.9
2017-Oct-14 13:31N 50°50' E 001°04'814.0
2017-Oct-14 12:58N 50°56' E 001°13'614.1
2017-Oct-14 12:30N 51°00' E 001°20'713.8
2017-Oct-14 12:01N 51°04' E 001°29'713.4
2017-Oct-14 11:31N 51°09' E 001°37'612.8
2017-Oct-14 11:01N 51°13' E 001°44'612.3
2017-Oct-14 10:31N 51°18' E 001°50'612.1
2017-Oct-14 10:01N 51°23' E 001°56'611.8
2017-Oct-14 09:30N 51°28' E 002°01'611.8
2017-Oct-14 09:01N 51°32' E 002°08'611.6
2017-Oct-14 08:30N 51°37' E 002°14'611.6
2017-Oct-14 08:00N 51°42' E 002°18'611.9
2017-Oct-14 07:30N 51°47' E 002°24'612.1
2017-Oct-14 07:00N 51°51' E 002°30'712.3
2017-Oct-14 06:28N 51°56' E 002°38'612.8
2017-Oct-14 05:59N 52°00' E 002°44'613.2
2017-Oct-14 05:30N 52°05' E 002°51'913.5
2017-Oct-14 04:48N 52°13' E 003°01'413.6
2017-Oct-14 04:28N 52°16' E 003°05'613.3
2017-Oct-14 04:00N 52°21' E 003°12'713.5
2017-Oct-14 03:30N 52°26' E 003°19'612.2
2017-Oct-14 03:00N 52°29' E 003°28'713.0
2017-Oct-14 02:29N 52°30' E 003°39'612.8
2017-Oct-14 02:00N 52°30' E 003°49'612.6
2017-Oct-14 01:30N 52°31' E 003°59'612.6
2017-Oct-14 01:00N 52°31' E 004°10'612.6
2017-Oct-14 00:30N 52°30' E 004°20'511.0
2017-Oct-14 00:01N 52°29' E 004°29'4 8.3
2017-Oct-13 23:31N 52°28' E 004°35'1 1.5
2017-Oct-13 23:00N 52°28' E 004°37'1 1.3
2017-Oct-13 22:31N 52°28' E 004°38'3 5.1
2017-Oct-13 22:00N 52°27' E 004°41'4 8.2
2017-Oct-13 21:30N 52°25' E 004°48'2 3.1
2017-Oct-13 21:00N 52°24' E 004°49'0 0.0
2017-Oct-13 20:30N 52°24' E 004°49'0 0.0
2017-Oct-13 19:49N 52°24' E 004°49'0 0.0
2017-Oct-13 19:19N 52°24' E 004°49'0 0.0
2017-Oct-13 18:58N 52°24' E 004°49'0 0.0
2017-Oct-13 18:28N 52°24' E 004°49'0 0.0
2017-Oct-13 17:55N 52°24' E 004°49'0 0.0
2017-Oct-13 17:28N 52°24' E 004°49'0 0.0
2017-Oct-13 16:40N 52°24' E 004°49'0 0.0
2017-Oct-13 16:28N 52°24' E 004°49'0 0.0
2017-Oct-13 15:49N 52°24' E 004°49'0 0.0
2017-Oct-13 15:28N 52°24' E 004°49'0 0.0
2017-Oct-13 14:58N 52°24' E 004°49'0 0.0
2017-Oct-13 14:16N 52°24' E 004°49'0 0.0
2017-Oct-13 13:46N 52°24' E 004°49'0 0.0
2017-Oct-13 13:28N 52°24' E 004°49'0 0.0
2017-Oct-13 12:52N 52°24' E 004°49'0 0.0
2017-Oct-13 11:34N 52°24' E 004°49'0 0.0
2017-Oct-13 11:28N 52°24' E 004°49'0 0.0
2017-Oct-13 10:58N 52°24' E 004°49'0 0.0
2017-Oct-13 10:28N 52°24' E 004°49'0 0.0
2017-Oct-13 09:58N 52°24' E 004°49'0 0.0
2017-Oct-13 09:25N 52°24' E 004°49'0 0.0
2017-Oct-13 08:58N 52°24' E 004°49'0 0.0
2017-Oct-13 08:25N 52°24' E 004°49'0 0.0
2017-Oct-13 07:58N 52°24' E 004°49'0 0.0
2017-Oct-13 07:28N 52°24' E 004°49'0 0.0
2017-Oct-13 06:58N 52°24' E 004°49'0 0.0
2017-Oct-13 06:19N 52°24' E 004°49'0 0.0
2017-Oct-13 05:52N 52°24' E 004°49'0 0.0
2017-Oct-13 05:28N 52°24' E 004°49'0 0.0
2017-Oct-13 04:52N 52°24' E 004°49'0 0.0
2017-Oct-13 04:28N 52°24' E 004°49'0 0.0
2017-Oct-13 03:46N 52°24' E 004°49'0 0.0
2017-Oct-13 03:25N 52°24' E 004°49'0 0.0
2017-Oct-13 02:55N 52°24' E 004°49'0 0.0
2017-Oct-13 02:28N 52°24' E 004°49'0 0.0
2017-Oct-13 01:58N 52°24' E 004°49'0 0.0
2017-Oct-13 01:25N 52°24' E 004°49'0 0.0
2017-Oct-13 00:58N 52°24' E 004°49'0 0.0
2017-Oct-13 00:19N 52°24' E 004°49'0 0.0
2017-Oct-12 23:58N 52°24' E 004°49'0 0.0
2017-Oct-12 23:22N 52°24' E 004°49'0 0.0
2017-Oct-12 22:58N 52°24' E 004°49'0 0.0
2017-Oct-12 22:28N 52°24' E 004°49'0 0.0
2017-Oct-12 21:58N 52°24' E 004°49'0 0.0
2017-Oct-12 21:25N 52°24' E 004°49'0 0.0
2017-Oct-12 20:58N 52°24' E 004°49'0 0.0
2017-Oct-12 20:28N 52°24' E 004°49'0 0.0
2017-Oct-12 19:58N 52°24' E 004°49'0 0.0
2017-Oct-12 19:25N 52°24' E 004°49'0 0.0
2017-Oct-12 18:49N 52°24' E 004°49'0 0.0
2017-Oct-12 18:22N 52°24' E 004°49'0 0.0
2017-Oct-12 17:46N 52°24' E 004°49'0 0.0
2017-Oct-12 17:19N 52°24' E 004°49'0 0.0
2017-Oct-12 16:58N 52°24' E 004°49'0 0.0
2017-Oct-12 16:25N 52°24' E 004°49'0 0.0
2017-Oct-12 15:55N 52°24' E 004°49'0 0.0
2017-Oct-12 15:25N 52°24' E 004°49'0 0.0
2017-Oct-12 14:55N 52°24' E 004°49'0 0.0
2017-Oct-12 14:25N 52°24' E 004°49'0 0.0
2017-Oct-12 13:49N 52°24' E 004°49'0 0.0
2017-Oct-12 13:13N 52°24' E 004°49'0 0.0
2017-Oct-12 12:55N 52°24' E 004°49'0 0.0
2017-Oct-12 12:16N 52°24' E 004°49'0 0.0
2017-Oct-12 11:49N 52°24' E 004°49'0 0.0
2017-Oct-12 11:16N 52°24' E 004°49'0 0.0
2017-Oct-12 10:58N 52°24' E 004°49'0 0.0
2017-Oct-12 10:25N 52°24' E 004°49'0 0.0
2017-Oct-12 09:58N 52°24' E 004°49'0 0.0
2017-Oct-12 09:19N 52°24' E 004°49'0 0.0
2017-Oct-12 08:31N 52°24' E 004°49'0 0.0
2017-Oct-12 08:25N 52°24' E 004°49'0 0.0
2017-Oct-12 07:49N 52°24' E 004°49'0 0.0
2017-Oct-12 07:19N 52°24' E 004°49'0 0.0
2017-Oct-12 06:55N 52°24' E 004°49'0 0.0
2017-Oct-12 06:19N 52°24' E 004°49'0 0.0
2017-Oct-12 05:55N 52°24' E 004°49'0 0.0
2017-Oct-12 05:25N 52°24' E 004°49'0 0.0
2017-Oct-12 04:55N 52°24' E 004°49'0 0.0
2017-Oct-12 04:25N 52°24' E 004°49'0 0.0
2017-Oct-12 03:58N 52°24' E 004°49'0 0.0
2017-Oct-12 03:22N 52°24' E 004°49'0 0.0
2017-Oct-12 02:58N 52°24' E 004°49'0 0.0
2017-Oct-12 02:28N 52°24' E 004°49'0 0.0
2017-Oct-12 01:58N 52°24' E 004°49'0 0.0
2017-Oct-12 01:25N 52°24' E 004°49'0 0.0
2017-Oct-12 00:58N 52°24' E 004°49'0 0.0
2017-Oct-12 00:25N 52°24' E 004°49'0 0.0
2017-Oct-11 23:58N 52°24' E 004°49'0 0.0
2017-Oct-11 23:30N 52°24' E 004°49'1 1.4
2017-Oct-11 23:00N 52°25' E 004°49'3 5.3
2017-Oct-11 22:30N 52°26' E 004°45'4 7.7
2017-Oct-11 22:00N 52°28' E 004°39'2 3.4
2017-Oct-11 21:31N 52°28' E 004°37'0 0.3
2017-Oct-11 21:00N 52°28' E 004°36'1 2.0
2017-Oct-11 20:31N 52°28' E 004°35'3 5.2
2017-Oct-11 20:01N 52°28' E 004°30'3 6.5
2017-Oct-11 19:30N 52°29' E 004°25'2 5.0
2017-Oct-11 19:01N 52°29' E 004°21'2 4.8
2017-Oct-11 18:31N 52°29' E 004°17'2 4.0
2017-Oct-11 18:00N 52°29' E 004°14'3 5.2
2017-Oct-11 17:30N 52°29' E 004°10'3 5.7
2017-Oct-11 17:00N 52°28' E 004°05'68 4.0
2017-Oct-11 00:00N 51°21' E 004°17'0 0.4
2017-Oct-10 23:30N 51°21' E 004°17'0 0.0
2017-Oct-10 23:01N 51°21' E 004°17'0 0.0
2017-Oct-10 22:30N 51°21' E 004°17'0 0.0
2017-Oct-10 22:01N 51°21' E 004°17'1 2.9
2017-Oct-10 21:30N 51°19' E 004°19'1 1.1
2017-Oct-10 21:00N 51°19' E 004°19'0 0.0
2017-Oct-10 20:28N 51°19' E 004°19'0 0.0
2017-Oct-10 19:58N 51°19' E 004°19'0 0.0
2017-Oct-10 19:22N 51°19' E 004°19'0 0.0
2017-Oct-10 18:46N 51°19' E 004°19'0 0.0
2017-Oct-10 18:28N 51°19' E 004°19'0 0.0
2017-Oct-10 17:58N 51°19' E 004°19'0 0.0
2017-Oct-10 17:28N 51°19' E 004°19'0 0.0
2017-Oct-10 16:55N 51°19' E 004°19'0 0.0
2017-Oct-10 16:25N 51°19' E 004°19'0 0.0
2017-Oct-10 15:49N 51°19' E 004°19'0 0.0
2017-Oct-10 15:25N 51°19' E 004°19'0 0.0
2017-Oct-10 14:49N 51°19' E 004°19'0 0.0
2017-Oct-10 13:49N 51°19' E 004°19'0 0.0
2017-Oct-10 13:28N 51°19' E 004°19'0 0.0
2017-Oct-10 12:58N 51°19' E 004°19'0 0.0
2017-Oct-10 12:28N 51°19' E 004°19'0 0.0
2017-Oct-10 11:52N 51°19' E 004°19'0 0.0
2017-Oct-10 11:28N 51°19' E 004°19'0 0.0
2017-Oct-10 10:55N 51°19' E 004°19'0 0.0
2017-Oct-10 10:28N 51°19' E 004°19'0 0.0
2017-Oct-10 09:58N 51°19' E 004°19'0 0.0
2017-Oct-10 09:25N 51°19' E 004°19'0 0.0
2017-Oct-10 08:58N 51°19' E 004°19'0 0.0
2017-Oct-10 08:22N 51°19' E 004°19'0 0.0
2017-Oct-10 07:52N 51°19' E 004°19'0 0.0
2017-Oct-10 07:22N 51°19' E 004°19'0 0.0
2017-Oct-10 06:58N 51°19' E 004°19'0 0.0
2017-Oct-10 06:25N 51°19' E 004°19'0 0.0
2017-Oct-10 05:58N 51°19' E 004°19'0 0.0
2017-Oct-10 05:28N 51°19' E 004°19'0 0.0
2017-Oct-10 04:58N 51°19' E 004°19'0 0.0
2017-Oct-10 04:16N 51°19' E 004°19'0 0.0
2017-Oct-10 03:55N 51°19' E 004°19'0 0.0
2017-Oct-10 03:22N 51°19' E 004°19'0 0.0
2017-Oct-10 02:55N 51°19' E 004°19'0 0.0
2017-Oct-10 02:28N 51°19' E 004°19'0 0.0
2017-Oct-10 01:55N 51°19' E 004°19'0 0.0
2017-Oct-10 01:25N 51°19' E 004°19'0 0.0
2017-Oct-10 00:58N 51°19' E 004°19'0 0.0
2017-Oct-10 00:28N 51°19' E 004°19'0 0.0
2017-Oct-09 23:58N 51°19' E 004°19'0 0.0
2017-Oct-09 23:28N 51°19' E 004°19'0 0.0
2017-Oct-09 22:58N 51°19' E 004°19'0 0.0
2017-Oct-09 22:28N 51°19' E 004°19'0 0.0
2017-Oct-09 21:58N 51°19' E 004°19'0 0.0
2017-Oct-09 21:22N 51°19' E 004°19'0 0.0
2017-Oct-09 20:58N 51°19' E 004°19'0 0.0
2017-Oct-09 20:25N 51°19' E 004°19'0 0.0
2017-Oct-09 19:58N 51°19' E 004°19'0 0.0
2017-Oct-09 19:28N 51°19' E 004°19'0 0.0
2017-Oct-09 18:55N 51°19' E 004°19'0 0.0
2017-Oct-09 18:28N 51°19' E 004°19'0 0.0
2017-Oct-09 17:58N 51°19' E 004°19'0 0.0
2017-Oct-09 17:25N 51°19' E 004°19'0 0.0
2017-Oct-09 16:58N 51°19' E 004°19'0 0.0
2017-Oct-09 16:30N 51°19' E 004°19'2 3.5
2017-Oct-09 16:01N 51°21' E 004°18'0 0.8
2017-Oct-09 15:30N 51°21' E 004°17'0 0.0
2017-Oct-09 15:00N 51°21' E 004°17'0 0.7
2017-Oct-09 14:30N 51°21' E 004°17'3 5.2
2017-Oct-09 14:00N 51°22' E 004°13'4 8.5
2017-Oct-09 13:30N 51°22' E 004°06'611.6
2017-Oct-09 13:00N 51°26' E 003°60'713.2
2017-Oct-09 12:31N 51°21' E 003°53'611.9
2017-Oct-09 12:00N 51°23' E 003°44'510.1
2017-Oct-09 11:30N 51°26' E 003°38'5 9.4
2017-Oct-09 11:00N 51°25' E 003°30'612.4
2017-Oct-09 10:30N 51°24' E 003°21'611.5
2017-Oct-09 10:00N 51°24' E 003°11'510.9
2017-Oct-09 09:31N 51°24' E 003°03'510.5
2017-Oct-09 09:00N 51°22' E 002°55'510.8
2017-Oct-09 08:30N 51°22' E 002°46'5 9.9
2017-Oct-09 08:00N 51°21' E 002°38'0 1.0
2017-Oct-09 07:30N 51°21' E 002°38'1 1.2
2017-Oct-09 06:56N 51°21' E 002°38'2 5.3
2017-Oct-09 06:30N 51°24' E 002°38'1 0.9
2017-Oct-09 05:38N 51°24' E 002°38'0 0.1
2017-Oct-09 05:20N 51°24' E 002°38'0 0.0
2017-Oct-09 04:56N 51°24' E 002°38'0 0.0
2017-Oct-09 04:29N 51°24' E 002°38'0 0.0
2017-Oct-09 03:53N 51°24' E 002°38'0 0.0
2017-Oct-09 03:17N 51°24' E 002°38'0 0.0
2017-Oct-09 02:53N 51°24' E 002°38'0 0.1
2017-Oct-09 00:14N 51°24' E 002°38'0 0.1
2017-Oct-08 23:38N 51°24' E 002°38'0 0.0
2017-Oct-08 23:17N 51°24' E 002°38'0 0.0
2017-Oct-08 22:56N 51°24' E 002°38'0 0.0
2017-Oct-08 22:14N 51°24' E 002°38'0 0.0
2017-Oct-08 21:50N 51°24' E 002°38'0 0.0
2017-Oct-08 21:20N 51°24' E 002°38'0 0.0
2017-Oct-08 20:56N 51°24' E 002°38'0 0.0
2017-Oct-08 19:47N 51°24' E 002°38'0 0.0
2017-Oct-08 19:26N 51°24' E 002°38'0 0.1
2017-Oct-08 18:59N 51°24' E 002°38'0 0.2
2017-Oct-08 18:23N 51°24' E 002°38'0 0.0
2017-Oct-08 17:11N 51°24' E 002°38'0 0.0
2017-Oct-08 16:35N 51°24' E 002°38'0 0.0
2017-Oct-08 12:20N 51°24' E 002°38'0 0.2
2017-Oct-08 11:59N 51°24' E 002°38'0 0.1
2017-Oct-08 11:29N 51°24' E 002°38'0 0.0
2017-Oct-08 04:26N 51°24' E 002°38'0 0.0
2017-Oct-07 23:26N 51°24' E 002°38'0 0.1
2017-Oct-07 22:53N 51°24' E 002°38'0 0.1
2017-Oct-07 22:23N 51°24' E 002°38'0 0.0
2017-Oct-07 21:53N 51°24' E 002°38'0 0.0
2017-Oct-07 21:26N 51°24' E 002°38'0 0.0
2017-Oct-07 20:47N 51°24' E 002°38'0 0.1
2017-Oct-07 19:47N 51°24' E 002°38'0 0.1
2017-Oct-07 19:20N 51°24' E 002°38'0 0.1
2017-Oct-07 18:44N 51°24' E 002°38'0 0.1
2017-Oct-07 18:20N 51°24' E 002°38'0 0.2
2017-Oct-07 17:44N 51°24' E 002°38'0 0.0
2017-Oct-07 15:56N 51°24' E 002°38'0 0.0
2017-Oct-07 07:11N 51°24' E 002°38'0 0.0
2017-Oct-07 06:59N 51°24' E 002°38'0 0.0
2017-Oct-07 06:29N 51°24' E 002°38'0 0.0
2017-Oct-07 05:56N 51°24' E 002°38'0 0.0
2017-Oct-07 05:26N 51°24' E 002°38'0 0.0
2017-Oct-07 04:56N 51°24' E 002°38'0 0.0
2017-Oct-07 04:29N 51°24' E 002°38'0 0.0
2017-Oct-07 02:44N 51°24' E 002°38'0 0.2
2017-Oct-07 02:20N 51°24' E 002°38'1 2.0
2017-Oct-07 01:57N 51°24' E 002°38'4 7.9
2017-Oct-07 01:29N 51°23' E 002°33'4 8.0
2017-Oct-07 01:00N 51°22' E 002°27'713.3
2017-Oct-07 00:30N 51°18' E 002°18'713.6
2017-Oct-07 00:01N 51°14' E 002°09'714.8
2017-Oct-06 23:30N 51°11' E 001°58'714.8
2017-Oct-06 23:00N 51°08' E 001°48'714.7
2017-Oct-06 22:30N 51°02' E 001°40'713.9
2017-Oct-06 22:00N 50°57' E 001°32'612.9
2017-Oct-06 21:30N 50°52' E 001°26'612.0
2017-Oct-06 21:01N 50°46' E 001°24'3011.6
2017-Oct-06 18:24N 50°27' E 000°47'2411.7
2017-Oct-06 16:20N 50°20' E 000°11'411.4
2017-Oct-06 16:00N 50°19' E 000°05'611.2
2017-Oct-06 15:25N 50°17' W 000°05'1010.9
2017-Oct-06 14:33N 50°15' W 000°19'2910.7
2017-Oct-06 11:51N 50°08' W 001°03'412.3
2017-Oct-06 11:30N 50°07' W 001°09'613.0
2017-Oct-06 11:00N 50°05' W 001°19'713.8
2017-Oct-06 10:30N 50°02' W 001°29'714.6
2017-Oct-06 10:01N 49°60' W 001°40'815.5
2017-Oct-06 09:30N 49°58' W 001°51'815.9
2017-Oct-06 09:00N 49°56' W 002°03'2316.2
2017-Oct-06 07:34N 49°50' W 002°38'215.7
2017-Oct-06 07:28N 49°49' W 002°40'715.6
2017-Oct-06 07:00N 49°48' W 002°51'1114.8
2017-Oct-06 06:18N 49°44' W 003°06'414.7
2017-Oct-06 06:00N 49°42' W 003°12'714.4
2017-Oct-06 05:30N 49°38' W 003°22'7013.7
2017-Oct-06 00:26N 49°03' W 004°54'511.8
2017-Oct-06 00:00N 49°01' W 005°01'611.1
2017-Oct-05 23:30N 48°58' W 005°08'510.5
2017-Oct-05 22:59N 48°55' W 005°15'510.5
2017-Oct-05 22:30N 48°53' W 005°22'510.5
2017-Oct-05 21:59N 48°50' W 005°29'510.4
2017-Oct-05 21:29N 48°48' W 005°36'510.3
2017-Oct-05 21:00N 48°44' W 005°41'  

Dump ship's entire track history